sensor_id;sensor_type;location;lat;lon;timestamp;P1;durP1;ratioP1;P2;durP2;ratioP2
2928;SDS011;1474;51.460;7.150;2023-05-07T00:02:01;4.13;;;3.22;;
2928;SDS011;1474;51.460;7.150;2023-05-07T00:04:28;4.20;;;3.10;;
2928;SDS011;1474;51.460;7.150;2023-05-07T00:07:00;5.75;;;3.78;;
2928;SDS011;1474;51.460;7.150;2023-05-07T00:09:26;5.25;;;3.88;;
2928;SDS011;1474;51.460;7.150;2023-05-07T00:11:52;5.20;;;4.15;;
2928;SDS011;1474;51.460;7.150;2023-05-07T00:14:18;4.00;;;3.47;;
2928;SDS011;1474;51.460;7.150;2023-05-07T00:16:44;4.63;;;3.85;;
2928;SDS011;1474;51.460;7.150;2023-05-07T00:19:09;4.82;;;3.95;;
2928;SDS011;1474;51.460;7.150;2023-05-07T00:21:35;5.75;;;3.83;;
2928;SDS011;1474;51.460;7.150;2023-05-07T00:24:01;5.63;;;4.28;;
2928;SDS011;1474;51.460;7.150;2023-05-07T00:26:27;5.75;;;3.95;;
2928;SDS011;1474;51.460;7.150;2023-05-07T00:28:52;6.47;;;5.25;;
2928;SDS011;1474;51.460;7.150;2023-05-07T00:31:18;6.78;;;3.63;;
2928;SDS011;1474;51.460;7.150;2023-05-07T00:33:44;5.47;;;4.18;;
2928;SDS011;1474;51.460;7.150;2023-05-07T00:36:09;6.95;;;3.72;;
2928;SDS011;1474;51.460;7.150;2023-05-07T00:38:35;5.93;;;4.00;;
2928;SDS011;1474;51.460;7.150;2023-05-07T00:41:01;5.05;;;3.90;;
2928;SDS011;1474;51.460;7.150;2023-05-07T00:43:27;7.38;;;3.88;;
2928;SDS011;1474;51.460;7.150;2023-05-07T00:45:53;4.68;;;3.28;;
2928;SDS011;1474;51.460;7.150;2023-05-07T00:48:19;5.93;;;3.72;;
2928;SDS011;1474;51.460;7.150;2023-05-07T00:50:46;6.18;;;4.15;;
2928;SDS011;1474;51.460;7.150;2023-05-07T00:53:13;4.90;;;3.70;;
2928;SDS011;1474;51.460;7.150;2023-05-07T00:55:39;6.07;;;4.53;;
2928;SDS011;1474;51.460;7.150;2023-05-07T00:58:06;5.80;;;4.15;;
2928;SDS011;1474;51.460;7.150;2023-05-07T01:00:31;6.32;;;4.38;;
2928;SDS011;1474;51.460;7.150;2023-05-07T01:02:57;4.80;;;4.07;;
2928;SDS011;1474;51.460;7.150;2023-05-07T01:05:24;6.22;;;4.15;;
2928;SDS011;1474;51.460;7.150;2023-05-07T01:07:52;6.32;;;4.70;;
2928;SDS011;1474;51.460;7.150;2023-05-07T01:10:20;6.35;;;5.15;;
2928;SDS011;1474;51.460;7.150;2023-05-07T01:12:47;5.90;;;4.80;;
2928;SDS011;1474;51.460;7.150;2023-05-07T01:15:15;5.85;;;3.88;;
2928;SDS011;1474;51.460;7.150;2023-05-07T01:17:42;4.95;;;4.45;;
2928;SDS011;1474;51.460;7.150;2023-05-07T01:20:09;5.60;;;4.40;;
2928;SDS011;1474;51.460;7.150;2023-05-07T01:22:38;5.85;;;4.53;;
2928;SDS011;1474;51.460;7.150;2023-05-07T01:25:05;4.43;;;4.03;;
2928;SDS011;1474;51.460;7.150;2023-05-07T01:27:33;8.93;;;4.35;;
2928;SDS011;1474;51.460;7.150;2023-05-07T01:30:00;7.95;;;5.45;;
2928;SDS011;1474;51.460;7.150;2023-05-07T01:32:35;8.10;;;4.93;;
2928;SDS011;1474;51.460;7.150;2023-05-07T01:35:22;5.05;;;4.63;;
2928;SDS011;1474;51.460;7.150;2023-05-07T01:37:55;7.60;;;4.95;;
2928;SDS011;1474;51.460;7.150;2023-05-07T01:40:21;5.85;;;4.88;;
2928;SDS011;1474;51.460;7.150;2023-05-07T01:42:49;6.13;;;4.93;;
2928;SDS011;1474;51.460;7.150;2023-05-07T01:45:16;7.13;;;5.85;;
2928;SDS011;1474;51.460;7.150;2023-05-07T01:47:42;8.85;;;6.15;;
2928;SDS011;1474;51.460;7.150;2023-05-07T01:50:09;7.15;;;5.70;;
2928;SDS011;1474;51.460;7.150;2023-05-07T01:52:36;7.65;;;6.13;;
2928;SDS011;1474;51.460;7.150;2023-05-07T01:55:03;6.93;;;6.22;;
2928;SDS011;1474;51.460;7.150;2023-05-07T01:57:31;7.40;;;6.18;;
2928;SDS011;1474;51.460;7.150;2023-05-07T01:59:56;6.60;;;5.53;;
2928;SDS011;1474;51.460;7.150;2023-05-07T02:02:22;8.75;;;6.40;;
2928;SDS011;1474;51.460;7.150;2023-05-07T02:04:48;6.53;;;5.88;;
2928;SDS011;1474;51.460;7.150;2023-05-07T02:07:14;8.93;;;6.20;;
2928;SDS011;1474;51.460;7.150;2023-05-07T02:09:39;8.55;;;6.50;;
2928;SDS011;1474;51.460;7.150;2023-05-07T02:12:05;7.53;;;5.88;;
2928;SDS011;1474;51.460;7.150;2023-05-07T02:14:31;8.70;;;6.22;;
2928;SDS011;1474;51.460;7.150;2023-05-07T02:16:57;8.35;;;5.85;;
2928;SDS011;1474;51.460;7.150;2023-05-07T02:19:22;8.00;;;6.40;;
2928;SDS011;1474;51.460;7.150;2023-05-07T02:21:48;9.23;;;6.53;;
2928;SDS011;1474;51.460;7.150;2023-05-07T02:24:14;8.98;;;6.70;;
2928;SDS011;1474;51.460;7.150;2023-05-07T02:26:40;8.05;;;6.13;;
2928;SDS011;1474;51.460;7.150;2023-05-07T02:29:06;7.90;;;6.80;;
2928;SDS011;1474;51.460;7.150;2023-05-07T02:31:32;8.43;;;5.85;;
2928;SDS011;1474;51.460;7.150;2023-05-07T02:33:59;7.63;;;6.80;;
2928;SDS011;1474;51.460;7.150;2023-05-07T02:36:25;8.82;;;7.47;;
2928;SDS011;1474;51.460;7.150;2023-05-07T02:38:51;12.82;;;6.78;;
2928;SDS011;1474;51.460;7.150;2023-05-07T02:41:17;8.73;;;7.18;;
2928;SDS011;1474;51.460;7.150;2023-05-07T02:43:43;9.73;;;7.43;;
2928;SDS011;1474;51.460;7.150;2023-05-07T02:46:09;7.05;;;6.38;;
2928;SDS011;1474;51.460;7.150;2023-05-07T02:48:35;6.50;;;5.88;;
2928;SDS011;1474;51.460;7.150;2023-05-07T02:51:01;10.13;;;7.70;;
2928;SDS011;1474;51.460;7.150;2023-05-07T02:53:28;6.88;;;6.18;;
2928;SDS011;1474;51.460;7.150;2023-05-07T02:55:58;7.22;;;6.47;;
2928;SDS011;1474;51.460;7.150;2023-05-07T02:58:25;7.72;;;6.30;;
2928;SDS011;1474;51.460;7.150;2023-05-07T03:00:51;7.68;;;6.70;;
2928;SDS011;1474;51.460;7.150;2023-05-07T03:03:19;9.05;;;6.22;;
2928;SDS011;1474;51.460;7.150;2023-05-07T03:05:46;8.27;;;6.18;;
2928;SDS011;1474;51.460;7.150;2023-05-07T03:08:12;7.85;;;5.88;;
2928;SDS011;1474;51.460;7.150;2023-05-07T03:10:38;8.00;;;5.40;;
2928;SDS011;1474;51.460;7.150;2023-05-07T03:13:04;6.82;;;5.55;;
2928;SDS011;1474;51.460;7.150;2023-05-07T03:15:30;8.98;;;5.88;;
2928;SDS011;1474;51.460;7.150;2023-05-07T03:17:55;5.93;;;5.20;;
2928;SDS011;1474;51.460;7.150;2023-05-07T03:20:21;6.50;;;5.07;;
2928;SDS011;1474;51.460;7.150;2023-05-07T03:22:47;7.65;;;6.07;;
2928;SDS011;1474;51.460;7.150;2023-05-07T03:25:13;8.45;;;6.10;;
2928;SDS011;1474;51.460;7.150;2023-05-07T03:27:39;6.93;;;5.85;;
2928;SDS011;1474;51.460;7.150;2023-05-07T03:30:07;8.82;;;6.00;;
2928;SDS011;1474;51.460;7.150;2023-05-07T03:32:34;8.25;;;7.00;;
2928;SDS011;1474;51.460;7.150;2023-05-07T03:35:00;6.95;;;6.22;;
2928;SDS011;1474;51.460;7.150;2023-05-07T03:37:27;7.63;;;6.25;;
2928;SDS011;1474;51.460;7.150;2023-05-07T03:39:53;9.23;;;6.50;;
2928;SDS011;1474;51.460;7.150;2023-05-07T03:42:18;7.43;;;5.93;;
2928;SDS011;1474;51.460;7.150;2023-05-07T03:44:44;7.82;;;6.03;;
2928;SDS011;1474;51.460;7.150;2023-05-07T03:47:10;9.32;;;6.18;;
2928;SDS011;1474;51.460;7.150;2023-05-07T03:49:36;7.10;;;5.97;;
2928;SDS011;1474;51.460;7.150;2023-05-07T03:52:02;6.75;;;6.03;;
2928;SDS011;1474;51.460;7.150;2023-05-07T03:54:28;8.50;;;5.95;;
2928;SDS011;1474;51.460;7.150;2023-05-07T03:56:55;6.88;;;6.05;;
2928;SDS011;1474;51.460;7.150;2023-05-07T03:59:21;8.07;;;6.43;;
2928;SDS011;1474;51.460;7.150;2023-05-07T04:01:47;11.05;;;8.15;;
2928;SDS011;1474;51.460;7.150;2023-05-07T04:04:13;7.95;;;7.18;;
2928;SDS011;1474;51.460;7.150;2023-05-07T04:06:40;9.93;;;8.80;;
2928;SDS011;1474;51.460;7.150;2023-05-07T04:09:06;9.30;;;8.35;;
2928;SDS011;1474;51.460;7.150;2023-05-07T04:11:32;11.27;;;7.97;;
2928;SDS011;1474;51.460;7.150;2023-05-07T04:13:58;11.00;;;7.43;;
2928;SDS011;1474;51.460;7.150;2023-05-07T04:16:24;11.90;;;7.55;;
2928;SDS011;1474;51.460;7.150;2023-05-07T04:18:50;12.98;;;10.20;;
2928;SDS011;1474;51.460;7.150;2023-05-07T04:21:16;10.90;;;9.75;;
2928;SDS011;1474;51.460;7.150;2023-05-07T04:23:43;16.35;;;10.35;;
2928;SDS011;1474;51.460;7.150;2023-05-07T04:26:09;12.13;;;10.68;;
2928;SDS011;1474;51.460;7.150;2023-05-07T04:28:35;15.10;;;12.02;;
2928;SDS011;1474;51.460;7.150;2023-05-07T04:31:01;11.98;;;10.63;;
2928;SDS011;1474;51.460;7.150;2023-05-07T04:33:27;13.30;;;11.90;;
2928;SDS011;1474;51.460;7.150;2023-05-07T04:35:53;16.02;;;12.88;;
2928;SDS011;1474;51.460;7.150;2023-05-07T04:38:18;15.30;;;11.60;;
2928;SDS011;1474;51.460;7.150;2023-05-07T04:40:44;16.30;;;13.23;;
2928;SDS011;1474;51.460;7.150;2023-05-07T04:43:11;14.45;;;12.27;;
2928;SDS011;1474;51.460;7.150;2023-05-07T04:45:38;17.63;;;14.85;;
2928;SDS011;1474;51.460;7.150;2023-05-07T04:48:06;17.67;;;13.10;;
2928;SDS011;1474;51.460;7.150;2023-05-07T04:50:33;17.17;;;15.32;;
2928;SDS011;1474;51.460;7.150;2023-05-07T04:52:59;15.82;;;13.52;;
2928;SDS011;1474;51.460;7.150;2023-05-07T04:55:25;16.02;;;13.35;;
2928;SDS011;1474;51.460;7.150;2023-05-07T04:57:51;15.85;;;13.48;;
2928;SDS011;1474;51.460;7.150;2023-05-07T05:00:18;16.38;;;13.55;;
2928;SDS011;1474;51.460;7.150;2023-05-07T05:02:44;18.35;;;14.27;;
2928;SDS011;1474;51.460;7.150;2023-05-07T05:05:10;15.60;;;13.35;;
2928;SDS011;1474;51.460;7.150;2023-05-07T05:07:36;18.10;;;13.77;;
2928;SDS011;1474;51.460;7.150;2023-05-07T05:10:02;16.40;;;13.13;;
2928;SDS011;1474;51.460;7.150;2023-05-07T05:12:30;14.52;;;12.25;;
2928;SDS011;1474;51.460;7.150;2023-05-07T05:14:56;16.63;;;13.23;;
2928;SDS011;1474;51.460;7.150;2023-05-07T05:17:23;14.10;;;12.60;;
2928;SDS011;1474;51.460;7.150;2023-05-07T05:19:48;13.48;;;10.55;;
2928;SDS011;1474;51.460;7.150;2023-05-07T05:22:14;15.27;;;12.20;;
2928;SDS011;1474;51.460;7.150;2023-05-07T05:24:40;17.38;;;11.95;;
2928;SDS011;1474;51.460;7.150;2023-05-07T05:27:06;16.15;;;11.90;;
2928;SDS011;1474;51.460;7.150;2023-05-07T05:29:31;14.98;;;11.45;;
2928;SDS011;1474;51.460;7.150;2023-05-07T05:31:57;12.20;;;10.80;;
2928;SDS011;1474;51.460;7.150;2023-05-07T05:34:23;13.63;;;10.45;;
2928;SDS011;1474;51.460;7.150;2023-05-07T05:36:49;12.90;;;10.15;;
2928;SDS011;1474;51.460;7.150;2023-05-07T05:39:14;10.13;;;9.10;;
2928;SDS011;1474;51.460;7.150;2023-05-07T05:41:40;9.55;;;8.60;;
2928;SDS011;1474;51.460;7.150;2023-05-07T05:44:06;10.55;;;9.43;;
2928;SDS011;1474;51.460;7.150;2023-05-07T05:46:32;14.65;;;9.48;;
2928;SDS011;1474;51.460;7.150;2023-05-07T05:48:57;12.45;;;8.27;;
2928;SDS011;1474;51.460;7.150;2023-05-07T05:51:23;9.18;;;8.00;;
2928;SDS011;1474;51.460;7.150;2023-05-07T05:53:49;10.20;;;7.70;;
2928;SDS011;1474;51.460;7.150;2023-05-07T05:56:15;9.25;;;7.80;;
2928;SDS011;1474;51.460;7.150;2023-05-07T05:58:41;9.15;;;7.35;;
2928;SDS011;1474;51.460;7.150;2023-05-07T06:01:07;8.27;;;6.55;;
2928;SDS011;1474;51.460;7.150;2023-05-07T06:03:33;6.90;;;6.07;;
2928;SDS011;1474;51.460;7.150;2023-05-07T06:05:59;11.57;;;6.15;;
2928;SDS011;1474;51.460;7.150;2023-05-07T06:08:30;6.75;;;6.05;;
2928;SDS011;1474;51.460;7.150;2023-05-07T06:10:56;9.20;;;5.35;;
2928;SDS011;1474;51.460;7.150;2023-05-07T06:13:23;7.70;;;5.35;;
2928;SDS011;1474;51.460;7.150;2023-05-07T06:15:49;6.03;;;4.60;;
2928;SDS011;1474;51.460;7.150;2023-05-07T06:18:15;5.63;;;4.80;;
2928;SDS011;1474;51.460;7.150;2023-05-07T06:20:41;5.30;;;4.65;;
2928;SDS011;1474;51.460;7.150;2023-05-07T06:23:06;7.72;;;4.15;;
2928;SDS011;1474;51.460;7.150;2023-05-07T06:25:32;5.50;;;4.45;;
2928;SDS011;1474;51.460;7.150;2023-05-07T06:27:58;4.35;;;3.75;;
2928;SDS011;1474;51.460;7.150;2023-05-07T06:30:24;4.68;;;3.80;;
2928;SDS011;1474;51.460;7.150;2023-05-07T06:32:50;6.50;;;3.70;;
2928;SDS011;1474;51.460;7.150;2023-05-07T06:35:15;4.00;;;3.28;;
2928;SDS011;1474;51.460;7.150;2023-05-07T06:37:41;5.03;;;4.20;;
2928;SDS011;1474;51.460;7.150;2023-05-07T06:40:08;3.72;;;3.30;;
2928;SDS011;1474;51.460;7.150;2023-05-07T06:42:35;5.20;;;3.10;;
2928;SDS011;1474;51.460;7.150;2023-05-07T06:45:02;3.78;;;2.90;;
2928;SDS011;1474;51.460;7.150;2023-05-07T06:47:28;4.18;;;3.05;;
2928;SDS011;1474;51.460;7.150;2023-05-07T06:49:53;4.43;;;3.22;;
2928;SDS011;1474;51.460;7.150;2023-05-07T06:52:20;3.10;;;2.80;;
2928;SDS011;1474;51.460;7.150;2023-05-07T06:54:45;4.35;;;2.75;;
2928;SDS011;1474;51.460;7.150;2023-05-07T06:57:11;3.00;;;2.72;;
2928;SDS011;1474;51.460;7.150;2023-05-07T06:59:37;3.00;;;2.55;;
2928;SDS011;1474;51.460;7.150;2023-05-07T07:02:02;3.22;;;2.47;;
2928;SDS011;1474;51.460;7.150;2023-05-07T07:04:28;3.33;;;2.55;;
2928;SDS011;1474;51.460;7.150;2023-05-07T07:06:55;4.32;;;2.50;;
2928;SDS011;1474;51.460;7.150;2023-05-07T07:09:21;3.75;;;2.95;;
2928;SDS011;1474;51.460;7.150;2023-05-07T07:11:47;3.58;;;2.55;;
2928;SDS011;1474;51.460;7.150;2023-05-07T07:14:13;3.28;;;2.40;;
2928;SDS011;1474;51.460;7.150;2023-05-07T07:16:39;4.80;;;2.65;;
2928;SDS011;1474;51.460;7.150;2023-05-07T07:19:05;2.72;;;2.35;;
2928;SDS011;1474;51.460;7.150;2023-05-07T07:21:31;3.38;;;2.65;;
2928;SDS011;1474;51.460;7.150;2023-05-07T07:24:00;3.25;;;2.33;;
2928;SDS011;1474;51.460;7.150;2023-05-07T07:26:26;4.55;;;2.50;;
2928;SDS011;1474;51.460;7.150;2023-05-07T07:28:52;3.05;;;2.10;;
2928;SDS011;1474;51.460;7.150;2023-05-07T07:31:17;2.20;;;2.00;;
2928;SDS011;1474;51.460;7.150;2023-05-07T07:33:43;3.92;;;2.17;;
2928;SDS011;1474;51.460;7.150;2023-05-07T07:36:09;2.95;;;2.30;;
2928;SDS011;1474;51.460;7.150;2023-05-07T07:38:35;3.67;;;2.20;;
2928;SDS011;1474;51.460;7.150;2023-05-07T07:41:01;3.38;;;2.58;;
2928;SDS011;1474;51.460;7.150;2023-05-07T07:43:27;5.80;;;3.42;;
2928;SDS011;1474;51.460;7.150;2023-05-07T07:45:53;3.90;;;2.08;;
2928;SDS011;1474;51.460;7.150;2023-05-07T07:48:19;2.92;;;2.08;;
2928;SDS011;1474;51.460;7.150;2023-05-07T07:50:44;3.58;;;3.05;;
2928;SDS011;1474;51.460;7.150;2023-05-07T07:53:14;2.83;;;2.53;;
2928;SDS011;1474;51.460;7.150;2023-05-07T07:55:39;6.35;;;2.92;;
2928;SDS011;1474;51.460;7.150;2023-05-07T07:58:05;3.15;;;2.85;;
2928;SDS011;1474;51.460;7.150;2023-05-07T08:00:31;3.40;;;2.92;;
2928;SDS011;1474;51.460;7.150;2023-05-07T08:02:57;4.40;;;3.10;;
2928;SDS011;1474;51.460;7.150;2023-05-07T08:05:23;3.78;;;2.90;;
2928;SDS011;1474;51.460;7.150;2023-05-07T08:07:49;5.40;;;3.15;;
2928;SDS011;1474;51.460;7.150;2023-05-07T08:10:17;3.90;;;2.80;;
2928;SDS011;1474;51.460;7.150;2023-05-07T08:12:50;3.08;;;2.45;;
2928;SDS011;1474;51.460;7.150;2023-05-07T08:15:16;3.78;;;2.78;;
2928;SDS011;1474;51.460;7.150;2023-05-07T08:17:43;3.53;;;3.00;;
2928;SDS011;1474;51.460;7.150;2023-05-07T08:20:09;4.35;;;3.05;;
2928;SDS011;1474;51.460;7.150;2023-05-07T08:22:35;3.22;;;2.55;;
2928;SDS011;1474;51.460;7.150;2023-05-07T08:25:02;4.18;;;2.58;;
2928;SDS011;1474;51.460;7.150;2023-05-07T08:27:28;4.55;;;2.70;;
2928;SDS011;1474;51.460;7.150;2023-05-07T08:29:54;4.18;;;3.00;;
2928;SDS011;1474;51.460;7.150;2023-05-07T08:32:20;4.07;;;2.92;;
2928;SDS011;1474;51.460;7.150;2023-05-07T08:34:46;3.08;;;2.78;;
2928;SDS011;1474;51.460;7.150;2023-05-07T08:37:13;3.85;;;2.67;;
2928;SDS011;1474;51.460;7.150;2023-05-07T08:39:38;4.15;;;3.38;;
2928;SDS011;1474;51.460;7.150;2023-05-07T08:42:04;2.80;;;2.60;;
2928;SDS011;1474;51.460;7.150;2023-05-07T08:44:34;5.22;;;2.88;;
2928;SDS011;1474;51.460;7.150;2023-05-07T08:47:03;3.88;;;3.03;;
2928;SDS011;1474;51.460;7.150;2023-05-07T08:49:33;5.60;;;3.40;;
2928;SDS011;1474;51.460;7.150;2023-05-07T08:52:01;6.30;;;3.10;;
2928;SDS011;1474;51.460;7.150;2023-05-07T08:54:27;4.45;;;3.15;;
2928;SDS011;1474;51.460;7.150;2023-05-07T08:56:54;4.40;;;3.30;;
2928;SDS011;1474;51.460;7.150;2023-05-07T08:59:20;3.88;;;2.97;;
2928;SDS011;1474;51.460;7.150;2023-05-07T09:01:46;3.28;;;2.88;;
2928;SDS011;1474;51.460;7.150;2023-05-07T09:04:12;5.10;;;3.15;;
2928;SDS011;1474;51.460;7.150;2023-05-07T09:06:38;4.63;;;3.33;;
2928;SDS011;1474;51.460;7.150;2023-05-07T09:09:06;2.67;;;2.42;;
2928;SDS011;1474;51.460;7.150;2023-05-07T09:11:33;3.45;;;2.95;;
2928;SDS011;1474;51.460;7.150;2023-05-07T09:13:59;4.45;;;3.20;;
2928;SDS011;1474;51.460;7.150;2023-05-07T09:16:29;5.85;;;2.72;;
2928;SDS011;1474;51.460;7.150;2023-05-07T09:18:57;3.25;;;2.65;;
2928;SDS011;1474;51.460;7.150;2023-05-07T09:21:25;3.60;;;2.78;;
2928;SDS011;1474;51.460;7.150;2023-05-07T09:23:52;3.03;;;2.15;;
2928;SDS011;1474;51.460;7.150;2023-05-07T09:26:24;3.17;;;2.30;;
2928;SDS011;1474;51.460;7.150;2023-05-07T09:28:50;4.65;;;2.70;;
2928;SDS011;1474;51.460;7.150;2023-05-07T09:31:18;3.58;;;2.78;;
2928;SDS011;1474;51.460;7.150;2023-05-07T09:33:44;3.10;;;2.80;;
2928;SDS011;1474;51.460;7.150;2023-05-07T09:36:10;4.45;;;2.60;;
2928;SDS011;1474;51.460;7.150;2023-05-07T09:38:36;4.32;;;2.22;;
2928;SDS011;1474;51.460;7.150;2023-05-07T09:41:07;3.53;;;2.30;;
2928;SDS011;1474;51.460;7.150;2023-05-07T09:43:39;3.20;;;2.35;;
2928;SDS011;1474;51.460;7.150;2023-05-07T09:46:06;5.78;;;2.90;;
2928;SDS011;1474;51.460;7.150;2023-05-07T09:48:38;5.30;;;2.78;;
2928;SDS011;1474;51.460;7.150;2023-05-07T09:51:25;3.50;;;3.05;;
2928;SDS011;1474;51.460;7.150;2023-05-07T09:53:57;3.50;;;2.67;;
2928;SDS011;1474;51.460;7.150;2023-05-07T09:56:29;3.90;;;2.83;;
2928;SDS011;1474;51.460;7.150;2023-05-07T09:58:57;4.00;;;2.70;;
2928;SDS011;1474;51.460;7.150;2023-05-07T10:01:25;3.03;;;2.50;;
2928;SDS011;1474;51.460;7.150;2023-05-07T10:03:53;4.28;;;2.53;;
2928;SDS011;1474;51.460;7.150;2023-05-07T10:06:20;4.15;;;2.85;;
2928;SDS011;1474;51.460;7.150;2023-05-07T10:08:51;5.95;;;2.60;;
2928;SDS011;1474;51.460;7.150;2023-05-07T10:11:18;4.93;;;2.90;;
2928;SDS011;1474;51.460;7.150;2023-05-07T10:13:45;4.90;;;4.13;;
2928;SDS011;1474;51.460;7.150;2023-05-07T10:16:13;3.58;;;3.00;;
2928;SDS011;1474;51.460;7.150;2023-05-07T10:18:40;4.97;;;2.83;;
2928;SDS011;1474;51.460;7.150;2023-05-07T10:21:27;4.05;;;2.75;;
2928;SDS011;1474;51.460;7.150;2023-05-07T10:23:58;4.53;;;2.53;;
2928;SDS011;1474;51.460;7.150;2023-05-07T10:26:31;4.13;;;2.50;;
2928;SDS011;1474;51.460;7.150;2023-05-07T10:29:02;3.80;;;3.28;;
2928;SDS011;1474;51.460;7.150;2023-05-07T10:34:26;3.70;;;3.00;;
2928;SDS011;1474;51.460;7.150;2023-05-07T10:36:59;3.38;;;2.83;;
2928;SDS011;1474;51.460;7.150;2023-05-07T10:39:26;3.95;;;3.08;;
2928;SDS011;1474;51.460;7.150;2023-05-07T10:41:54;3.22;;;2.50;;
2928;SDS011;1474;51.460;7.150;2023-05-07T10:44:29;5.72;;;2.85;;
2928;SDS011;1474;51.460;7.150;2023-05-07T10:47:05;3.40;;;2.78;;
2928;SDS011;1474;51.460;7.150;2023-05-07T10:49:35;2.50;;;2.03;;
2928;SDS011;1474;51.460;7.150;2023-05-07T10:54:41;3.45;;;2.25;;
2928;SDS011;1474;51.460;7.150;2023-05-07T11:00:02;3.92;;;2.00;;
2928;SDS011;1474;51.460;7.150;2023-05-07T11:05:30;3.22;;;2.50;;
2928;SDS011;1474;51.460;7.150;2023-05-07T11:08:01;2.53;;;2.20;;
2928;SDS011;1474;51.460;7.150;2023-05-07T11:10:48;2.38;;;2.17;;
2928;SDS011;1474;51.460;7.150;2023-05-07T11:16:22;3.63;;;3.20;;
2928;SDS011;1474;51.460;7.150;2023-05-07T11:18:53;4.28;;;3.25;;
2928;SDS011;1474;51.460;7.150;2023-05-07T11:21:41;3.53;;;3.08;;
2928;SDS011;1474;51.460;7.150;2023-05-07T11:24:09;3.78;;;2.95;;
2928;SDS011;1474;51.460;7.150;2023-05-07T11:31:41;4.00;;;3.00;;
2928;SDS011;1474;51.460;7.150;2023-05-07T11:34:07;4.22;;;3.33;;
2928;SDS011;1474;51.460;7.150;2023-05-07T11:36:34;4.35;;;2.80;;
2928;SDS011;1474;51.460;7.150;2023-05-07T11:39:22;2.78;;;2.08;;
2928;SDS011;1474;51.460;7.150;2023-05-07T11:41:58;3.20;;;2.55;;
2928;SDS011;1474;51.460;7.150;2023-05-07T11:44:25;4.85;;;3.15;;
2928;SDS011;1474;51.460;7.150;2023-05-07T11:47:07;5.18;;;3.78;;
2928;SDS011;1474;51.460;7.150;2023-05-07T11:49:34;4.60;;;3.60;;
2928;SDS011;1474;51.460;7.150;2023-05-07T11:52:00;9.38;;;3.55;;
2928;SDS011;1474;51.460;7.150;2023-05-07T11:54:26;3.92;;;3.10;;
2928;SDS011;1474;51.460;7.150;2023-05-07T11:57:01;4.50;;;3.70;;
2928;SDS011;1474;51.460;7.150;2023-05-07T11:59:27;6.47;;;3.83;;
2928;SDS011;1474;51.460;7.150;2023-05-07T12:01:56;5.70;;;4.07;;
2928;SDS011;1474;51.460;7.150;2023-05-07T12:04:24;4.38;;;3.78;;
2928;SDS011;1474;51.460;7.150;2023-05-07T12:06:53;4.28;;;3.65;;
2928;SDS011;1474;51.460;7.150;2023-05-07T12:09:20;6.22;;;4.38;;
2928;SDS011;1474;51.460;7.150;2023-05-07T12:11:46;5.38;;;4.43;;
2928;SDS011;1474;51.460;7.150;2023-05-07T12:14:12;5.10;;;4.30;;
2928;SDS011;1474;51.460;7.150;2023-05-07T12:16:40;6.57;;;4.95;;
2928;SDS011;1474;51.460;7.150;2023-05-07T12:19:07;7.07;;;5.45;;
2928;SDS011;1474;51.460;7.150;2023-05-07T12:21:37;6.63;;;5.00;;
2928;SDS011;1474;51.460;7.150;2023-05-07T12:24:04;6.82;;;5.38;;
2928;SDS011;1474;51.460;7.150;2023-05-07T12:26:30;7.43;;;4.95;;
2928;SDS011;1474;51.460;7.150;2023-05-07T12:28:57;7.38;;;4.63;;
2928;SDS011;1474;51.460;7.150;2023-05-07T12:31:25;5.25;;;4.65;;
2928;SDS011;1474;51.460;7.150;2023-05-07T12:33:51;4.93;;;4.38;;
2928;SDS011;1474;51.460;7.150;2023-05-07T12:36:18;5.75;;;4.95;;
2928;SDS011;1474;51.460;7.150;2023-05-07T12:39:32;8.65;;;5.80;;
2928;SDS011;1474;51.460;7.150;2023-05-07T12:41:59;8.73;;;5.93;;
2928;SDS011;1474;51.460;7.150;2023-05-07T12:44:25;6.28;;;5.10;;
2928;SDS011;1474;51.460;7.150;2023-05-07T12:46:56;7.47;;;5.80;;
2928;SDS011;1474;51.460;7.150;2023-05-07T12:49:24;6.75;;;5.32;;
2928;SDS011;1474;51.460;7.150;2023-05-07T12:51:50;7.43;;;5.03;;
2928;SDS011;1474;51.460;7.150;2023-05-07T12:54:38;5.30;;;4.20;;
2928;SDS011;1474;51.460;7.150;2023-05-07T12:57:07;6.00;;;4.82;;
2928;SDS011;1474;51.460;7.150;2023-05-07T12:59:37;5.18;;;4.65;;
2928;SDS011;1474;51.460;7.150;2023-05-07T13:02:05;4.97;;;4.13;;
2928;SDS011;1474;51.460;7.150;2023-05-07T13:04:31;4.75;;;4.22;;
2928;SDS011;1474;51.460;7.150;2023-05-07T13:06:58;7.50;;;5.32;;
2928;SDS011;1474;51.460;7.150;2023-05-07T13:09:24;7.07;;;4.75;;
2928;SDS011;1474;51.460;7.150;2023-05-07T13:11:50;4.97;;;4.45;;
2928;SDS011;1474;51.460;7.150;2023-05-07T13:14:16;7.13;;;4.97;;
2928;SDS011;1474;51.460;7.150;2023-05-07T13:16:42;7.18;;;5.50;;
2928;SDS011;1474;51.460;7.150;2023-05-07T13:19:08;5.60;;;4.50;;
2928;SDS011;1474;51.460;7.150;2023-05-07T13:21:34;4.75;;;4.25;;
2928;SDS011;1474;51.460;7.150;2023-05-07T13:23:59;7.13;;;4.90;;
2928;SDS011;1474;51.460;7.150;2023-05-07T13:26:25;5.63;;;4.45;;
2928;SDS011;1474;51.460;7.150;2023-05-07T13:28:54;7.40;;;4.55;;
2928;SDS011;1474;51.460;7.150;2023-05-07T13:31:20;4.68;;;3.85;;
2928;SDS011;1474;51.460;7.150;2023-05-07T13:33:46;4.90;;;4.03;;
2928;SDS011;1474;51.460;7.150;2023-05-07T13:36:12;4.22;;;3.65;;
2928;SDS011;1474;51.460;7.150;2023-05-07T13:38:41;5.05;;;3.88;;
2928;SDS011;1474;51.460;7.150;2023-05-07T13:41:07;5.55;;;4.20;;
2928;SDS011;1474;51.460;7.150;2023-05-07T13:43:32;5.95;;;4.68;;
2928;SDS011;1474;51.460;7.150;2023-05-07T13:45:58;5.72;;;3.67;;
2928;SDS011;1474;51.460;7.150;2023-05-07T13:48:25;4.93;;;3.92;;
2928;SDS011;1474;51.460;7.150;2023-05-07T13:50:53;6.10;;;4.82;;
2928;SDS011;1474;51.460;7.150;2023-05-07T13:53:19;8.23;;;4.57;;
2928;SDS011;1474;51.460;7.150;2023-05-07T13:55:45;4.88;;;4.00;;
2928;SDS011;1474;51.460;7.150;2023-05-07T13:58:10;5.68;;;4.63;;
2928;SDS011;1474;51.460;7.150;2023-05-07T14:00:36;5.65;;;4.20;;
2928;SDS011;1474;51.460;7.150;2023-05-07T14:03:03;5.47;;;4.68;;
2928;SDS011;1474;51.460;7.150;2023-05-07T14:05:30;5.85;;;5.25;;
2928;SDS011;1474;51.460;7.150;2023-05-07T14:07:59;5.80;;;4.65;;
2928;SDS011;1474;51.460;7.150;2023-05-07T14:10:24;5.93;;;5.28;;
2928;SDS011;1474;51.460;7.150;2023-05-07T14:12:50;5.38;;;4.60;;
2928;SDS011;1474;51.460;7.150;2023-05-07T14:15:17;5.25;;;4.68;;
2928;SDS011;1474;51.460;7.150;2023-05-07T14:17:43;5.18;;;4.13;;
2928;SDS011;1474;51.460;7.150;2023-05-07T14:20:09;7.88;;;5.40;;
2928;SDS011;1474;51.460;7.150;2023-05-07T14:22:38;5.82;;;4.78;;
2928;SDS011;1474;51.460;7.150;2023-05-07T14:25:03;5.22;;;3.92;;
2928;SDS011;1474;51.460;7.150;2023-05-07T14:27:30;4.90;;;4.30;;
2928;SDS011;1474;51.460;7.150;2023-05-07T14:29:56;4.72;;;4.32;;
2928;SDS011;1474;51.460;7.150;2023-05-07T14:32:21;5.53;;;4.78;;
2928;SDS011;1474;51.460;7.150;2023-05-07T14:34:47;5.43;;;4.88;;
2928;SDS011;1474;51.460;7.150;2023-05-07T14:37:13;6.45;;;4.70;;
2928;SDS011;1474;51.460;7.150;2023-05-07T14:39:39;6.75;;;5.00;;
2928;SDS011;1474;51.460;7.150;2023-05-07T14:42:05;5.88;;;4.72;;
2928;SDS011;1474;51.460;7.150;2023-05-07T14:44:33;6.30;;;4.70;;
2928;SDS011;1474;51.460;7.150;2023-05-07T14:47:01;6.38;;;4.85;;
2928;SDS011;1474;51.460;7.150;2023-05-07T14:49:27;4.93;;;4.43;;
2928;SDS011;1474;51.460;7.150;2023-05-07T14:51:53;6.60;;;4.57;;
2928;SDS011;1474;51.460;7.150;2023-05-07T14:54:19;5.18;;;4.15;;
2928;SDS011;1474;51.460;7.150;2023-05-07T14:56:45;6.45;;;4.50;;
2928;SDS011;1474;51.460;7.150;2023-05-07T14:59:11;5.07;;;4.55;;
2928;SDS011;1474;51.460;7.150;2023-05-07T15:01:37;8.18;;;4.50;;
2928;SDS011;1474;51.460;7.150;2023-05-07T15:04:03;8.20;;;4.70;;
2928;SDS011;1474;51.460;7.150;2023-05-07T15:06:30;5.38;;;4.57;;
2928;SDS011;1474;51.460;7.150;2023-05-07T15:08:56;5.47;;;4.47;;
2928;SDS011;1474;51.460;7.150;2023-05-07T15:11:23;6.03;;;4.57;;
2928;SDS011;1474;51.460;7.150;2023-05-07T15:13:49;5.82;;;4.55;;
2928;SDS011;1474;51.460;7.150;2023-05-07T15:16:15;6.13;;;5.47;;
2928;SDS011;1474;51.460;7.150;2023-05-07T15:18:41;7.28;;;5.55;;
2928;SDS011;1474;51.460;7.150;2023-05-07T15:21:07;8.18;;;5.97;;
2928;SDS011;1474;51.460;7.150;2023-05-07T15:23:33;7.32;;;5.53;;
2928;SDS011;1474;51.460;7.150;2023-05-07T15:25:59;6.63;;;5.53;;
2928;SDS011;1474;51.460;7.150;2023-05-07T15:28:26;7.55;;;5.82;;
2928;SDS011;1474;51.460;7.150;2023-05-07T15:30:53;6.90;;;5.35;;
2928;SDS011;1474;51.460;7.150;2023-05-07T15:33:22;6.55;;;5.50;;